createdAt,value
2023-11-30T00:00:36.964Z,11.05
2023-11-30T00:03:05.526Z,10.98
2023-11-30T00:05:33.278Z,10.43
2023-11-30T00:08:00.233Z,10.19
2023-11-30T00:10:28.500Z,9.52
2023-11-30T00:12:56.178Z,10.16
2023-11-30T00:15:23.156Z,9.98
2023-11-30T00:17:50.779Z,9.68
2023-11-30T00:20:18.350Z,10.39
2023-11-30T00:22:45.453Z,10.88
2023-11-30T00:25:12.441Z,11.72
2023-11-30T00:27:41.303Z,11.39
2023-11-30T00:30:10.504Z,10.95
2023-11-30T00:32:37.974Z,11.30
2023-11-30T00:35:05.982Z,11.44
2023-11-30T00:37:33.588Z,11.11
2023-11-30T00:40:00.592Z,11.33
2023-11-30T00:42:31.092Z,10.94
2023-11-30T00:44:59.694Z,10.77
2023-11-30T00:47:27.320Z,10.96
2023-11-30T00:49:55.055Z,11.09
2023-11-30T00:52:22.223Z,10.26
2023-11-30T00:54:49.407Z,11.20
2023-11-30T00:57:16.672Z,11.33
2023-11-30T00:59:44.277Z,11.10
2023-11-30T01:02:14.620Z,10.96
2023-11-30T01:04:42.032Z,11.36
2023-11-30T01:07:08.902Z,11.32
2023-11-30T01:09:39.012Z,11.49
2023-11-30T01:12:06.672Z,11.07
2023-11-30T01:14:33.587Z,11.32
2023-11-30T01:17:01.666Z,11.44
2023-11-30T01:19:31.980Z,11.29
2023-11-30T01:21:59.096Z,10.89
2023-11-30T01:24:26.071Z,11.18
2023-11-30T01:26:53.058Z,11.24
2023-11-30T01:29:20.005Z,10.97
2023-11-30T01:31:47.527Z,11.56
2023-11-30T01:34:14.447Z,12.50
2023-11-30T01:36:42.763Z,11.81
2023-11-30T01:39:09.820Z,11.66
2023-11-30T01:41:37.429Z,11.69
2023-11-30T01:44:05.157Z,12.31
2023-11-30T01:46:33.028Z,12.06
2023-11-30T01:49:00.805Z,12.54
2023-11-30T01:51:29.039Z,12.12
2023-11-30T01:53:58.186Z,12.31
2023-11-30T01:56:25.917Z,11.84
2023-11-30T01:58:53.481Z,12.19
2023-11-30T02:01:21.232Z,12.47
2023-11-30T02:03:48.960Z,12.23
2023-11-30T02:06:16.673Z,11.89
2023-11-30T02:08:44.340Z,11.97
2023-11-30T02:11:13.740Z,11.98
2023-11-30T02:13:41.517Z,12.06
2023-11-30T02:16:10.331Z,12.07
2023-11-30T02:18:37.916Z,11.58
2023-11-30T02:21:06.398Z,11.75
2023-11-30T02:23:35.945Z,12.22
2023-11-30T02:26:03.561Z,11.77
2023-11-30T02:28:31.165Z,11.72
2023-11-30T02:30:58.783Z,12.43
2023-11-30T02:33:26.587Z,12.04
2023-11-30T02:35:54.739Z,11.99
2023-11-30T02:38:22.233Z,12.79
2023-11-30T02:40:51.727Z,12.62
2023-11-30T02:43:19.904Z,12.46
2023-11-30T02:45:46.871Z,12.32
2023-11-30T02:48:15.255Z,12.64
2023-11-30T02:50:43.185Z,12.52
2023-11-30T02:53:10.850Z,12.74
2023-11-30T02:55:38.589Z,13.24
2023-11-30T02:58:07.893Z,13.62
2023-11-30T03:00:36.996Z,13.20
2023-11-30T03:03:04.602Z,13.09
2023-11-30T03:05:32.753Z,13.12
2023-11-30T03:08:00.280Z,12.96
2023-11-30T03:10:27.899Z,12.29
2023-11-30T03:12:55.503Z,12.46
2023-11-30T03:15:25.192Z,12.57
2023-11-30T03:17:52.911Z,12.81
2023-11-30T03:20:21.875Z,12.78
2023-11-30T03:22:49.551Z,12.77
2023-11-30T03:25:17.321Z,12.85
2023-11-30T03:27:45.255Z,12.79
2023-11-30T03:30:13.409Z,13.24
2023-11-30T03:32:42.804Z,13.03
2023-11-30T03:35:10.357Z,13.17
2023-11-30T03:37:38.060Z,12.71
2023-11-30T03:40:06.165Z,12.89
2023-11-30T03:42:34.044Z,12.76
2023-11-30T03:45:02.373Z,12.47
2023-11-30T03:47:30.188Z,12.68
2023-11-30T03:49:59.404Z,12.97
2023-11-30T03:52:27.198Z,12.76
2023-11-30T03:54:54.736Z,13.00
2023-11-30T03:57:22.550Z,13.03
2023-11-30T03:59:50.274Z,13.15
2023-11-30T04:02:18.070Z,13.15
2023-11-30T04:04:45.798Z,12.90
2023-11-30T04:07:15.382Z,12.82
2023-11-30T04:09:42.972Z,12.95
2023-11-30T04:12:10.740Z,13.92
2023-11-30T04:14:38.427Z,13.55
2023-11-30T04:17:06.581Z,14.10
2023-11-30T04:19:34.492Z,13.83
2023-11-30T04:22:02.235Z,14.13
2023-11-30T04:24:31.346Z,14.12
2023-11-30T04:26:59.019Z,14.09
2023-11-30T04:29:26.536Z,14.38
2023-11-30T04:31:55.046Z,14.56
2023-11-30T04:34:22.912Z,14.30
2023-11-30T04:36:50.531Z,14.58
2023-11-30T04:39:18.204Z,14.78
2023-11-30T04:41:47.048Z,14.98
2023-11-30T04:44:14.824Z,14.41
2023-11-30T04:46:42.737Z,14.47
2023-11-30T04:49:11.701Z,14.76
2023-11-30T04:51:39.473Z,14.83
2023-11-30T04:54:08.197Z,14.35
2023-11-30T04:56:36.028Z,13.88
2023-11-30T04:59:05.284Z,14.53
2023-11-30T05:01:34.168Z,14.31
2023-11-30T05:04:02.812Z,13.55
2023-11-30T05:06:31.639Z,14.09
2023-11-30T05:08:59.565Z,14.34
2023-11-30T05:11:27.210Z,14.38
2023-11-30T05:13:54.994Z,15.17
2023-11-30T05:16:24.054Z,15.59
2023-11-30T05:18:51.941Z,15.49
2023-11-30T05:21:19.649Z,15.84
2023-11-30T05:23:47.626Z,16.43
2023-11-30T05:26:15.181Z,16.60
2023-11-30T05:28:43.235Z,17.04
2023-11-30T05:31:11.399Z,16.57
2023-11-30T05:33:40.982Z,16.85
2023-11-30T05:36:09.810Z,17.15
2023-11-30T05:38:37.860Z,16.94
2023-11-30T05:41:05.556Z,16.76
2023-11-30T05:43:32.413Z,17.31
2023-11-30T05:45:59.381Z,16.94
2023-11-30T05:48:26.542Z,16.02
2023-11-30T05:50:55.586Z,15.54
2023-11-30T05:53:23.584Z,15.05
2023-11-30T05:55:51.499Z,14.06
2023-11-30T05:58:19.083Z,13.56
2023-11-30T06:00:47.963Z,13.56
2023-11-30T06:03:15.739Z,12.88
2023-11-30T06:05:43.662Z,12.69
2023-11-30T06:08:13.544Z,12.16
2023-11-30T06:10:41.182Z,11.95
2023-11-30T06:13:08.843Z,11.34
2023-11-30T06:15:36.704Z,11.35
2023-11-30T06:18:04.612Z,10.22
2023-11-30T06:20:32.752Z,11.19
2023-11-30T06:23:01.086Z,11.23
2023-11-30T06:25:30.450Z,10.55
2023-11-30T06:27:58.463Z,10.88
2023-11-30T06:30:26.169Z,10.93
2023-11-30T06:32:53.785Z,11.24
2023-11-30T06:35:21.400Z,11.48
2023-11-30T06:37:48.991Z,12.01
2023-11-30T06:40:16.892Z,12.49
2023-11-30T06:42:46.060Z,12.52
2023-11-30T06:45:14.130Z,12.38
2023-11-30T06:47:41.288Z,12.55
2023-11-30T06:50:10.610Z,11.99
2023-11-30T06:52:38.551Z,11.90
2023-11-30T06:55:06.838Z,12.23
2023-11-30T06:57:37.075Z,12.61
2023-11-30T07:00:08.330Z,12.81
2023-11-30T07:02:36.351Z,12.73
2023-11-30T07:05:04.533Z,12.68
2023-11-30T07:07:36.485Z,12.54
2023-11-30T07:10:05.779Z,12.07
2023-11-30T07:12:33.482Z,11.81
2023-11-30T07:15:01.407Z,11.77
2023-11-30T07:17:30.691Z,11.28
2023-11-30T07:19:58.674Z,11.35
2023-11-30T07:22:26.285Z,11.24
2023-11-30T07:24:54.619Z,11.08
2023-11-30T07:27:22.309Z,10.77
2023-11-30T07:29:50.153Z,10.68
2023-11-30T07:32:17.678Z,10.82
2023-11-30T07:34:46.738Z,11.95
2023-11-30T07:37:16.639Z,11.99
2023-11-30T07:39:43.914Z,11.84
2023-11-30T07:42:11.997Z,11.52
2023-11-30T07:44:39.957Z,11.26
2023-11-30T07:47:07.921Z,11.19
2023-11-30T07:49:35.665Z,11.02
2023-11-30T07:52:05.141Z,11.03
2023-11-30T07:54:33.074Z,10.95
2023-11-30T07:57:00.746Z,11.44
2023-11-30T07:59:28.636Z,11.25
2023-11-30T08:01:56.201Z,11.59
2023-11-30T08:04:24.178Z,11.14
2023-11-30T08:06:51.488Z,11.91
2023-11-30T08:09:21.984Z,12.12
2023-11-30T08:11:55.785Z,11.79
2023-11-30T08:14:23.780Z,11.69
2023-11-30T08:16:51.165Z,11.36
2023-11-30T08:19:18.728Z,10.93
2023-11-30T08:21:45.674Z,11.67
2023-11-30T08:24:13.243Z,11.59
2023-11-30T08:26:42.671Z,11.03
2023-11-30T08:29:10.218Z,11.10
2023-11-30T08:31:37.260Z,10.50
2023-11-30T08:34:05.267Z,10.61
2023-11-30T08:36:32.896Z,10.58
2023-11-30T08:39:00.315Z,10.39
2023-11-30T08:41:28.104Z,10.44
2023-11-30T08:43:57.482Z,10.23
2023-11-30T08:46:24.380Z,10.66
2023-11-30T08:48:52.131Z,10.30
2023-11-30T08:51:19.910Z,9.95
2023-11-30T08:53:48.146Z,9.95
2023-11-30T08:56:16.413Z,9.87
2023-11-30T08:58:44.442Z,9.77
2023-11-30T09:01:13.914Z,9.99
2023-11-30T09:03:42.570Z,10.01
2023-11-30T09:06:10.847Z,9.49
2023-11-30T09:08:38.611Z,10.14
2023-11-30T09:11:07.082Z,9.54
2023-11-30T09:13:34.516Z,9.16
2023-11-30T09:16:01.482Z,9.14
2023-11-30T09:18:30.567Z,9.31
2023-11-30T09:20:58.231Z,9.33
2023-11-30T09:23:28.844Z,9.27
2023-11-30T09:25:56.600Z,9.58
2023-11-30T09:28:24.126Z,10.33
2023-11-30T09:30:51.115Z,10.34
2023-11-30T09:33:18.608Z,9.94
2023-11-30T09:35:47.115Z,10.72
2023-11-30T09:38:15.037Z,10.01
2023-11-30T09:40:42.721Z,10.08
2023-11-30T09:43:11.590Z,10.57
2023-11-30T09:45:39.623Z,10.13
2023-11-30T09:48:07.640Z,10.21
2023-11-30T09:50:35.313Z,9.88
2023-11-30T09:53:04.714Z,9.93
2023-11-30T09:55:31.984Z,9.70
2023-11-30T09:58:00.242Z,9.52
2023-11-30T10:00:28.172Z,9.10
2023-11-30T10:02:58.132Z,8.93
2023-11-30T10:05:26.484Z,9.17
2023-11-30T10:07:53.780Z,9.88
2023-11-30T10:10:23.306Z,9.95
2023-11-30T10:12:50.982Z,9.34
2023-11-30T10:15:18.591Z,9.41
2023-11-30T10:17:46.528Z,8.96
2023-11-30T10:20:14.383Z,9.16
2023-11-30T10:22:42.088Z,9.22
2023-11-30T10:25:09.819Z,9.02
2023-11-30T10:27:39.377Z,9.52
2023-11-30T10:30:08.990Z,9.36
2023-11-30T10:32:36.829Z,9.22
2023-11-30T10:35:05.641Z,9.00
2023-11-30T10:37:34.310Z,8.79
2023-11-30T10:40:02.468Z,8.93
2023-11-30T10:42:30.216Z,8.30
2023-11-30T10:45:00.519Z,8.60
2023-11-30T10:47:28.416Z,8.82
2023-11-30T10:49:56.109Z,9.14
2023-11-30T10:52:23.731Z,9.03
2023-11-30T10:54:54.228Z,8.95
2023-11-30T10:57:22.503Z,9.43
2023-11-30T10:59:56.600Z,8.27
2023-11-30T11:02:26.332Z,8.74
2023-11-30T11:04:54.455Z,8.58
2023-11-30T11:07:22.087Z,8.78
2023-11-30T11:09:52.613Z,8.55
2023-11-30T11:12:21.404Z,8.17
2023-11-30T11:14:49.064Z,7.53
2023-11-30T11:17:17.061Z,7.47
2023-11-30T11:19:46.780Z,7.52
2023-11-30T11:22:15.453Z,7.93
2023-11-30T11:24:42.894Z,7.85
2023-11-30T11:27:13.602Z,7.97
2023-11-30T11:29:44.949Z,7.53
2023-11-30T11:32:13.060Z,7.96
2023-11-30T11:34:39.897Z,8.30
2023-11-30T11:37:09.112Z,10.02
2023-11-30T11:39:36.400Z,10.77
2023-11-30T11:42:06.780Z,10.38
2023-11-30T11:44:36.168Z,10.43
2023-11-30T11:47:06.280Z,11.03
2023-11-30T11:49:33.445Z,10.65
2023-11-30T11:52:00.935Z,9.95
2023-11-30T11:54:30.240Z,9.69
2023-11-30T11:56:58.373Z,8.76
2023-11-30T11:59:25.898Z,8.45
2023-11-30T12:01:57.010Z,8.20
2023-11-30T12:04:30.957Z,8.32
2023-11-30T12:06:58.290Z,8.04
2023-11-30T12:09:25.901Z,7.72
2023-11-30T12:11:56.090Z,7.66
2023-11-30T12:14:23.534Z,7.86
2023-11-30T12:16:51.201Z,8.10
2023-11-30T12:19:20.611Z,7.96
2023-11-30T12:21:48.413Z,8.32
2023-11-30T12:24:16.284Z,8.08
2023-11-30T12:26:43.941Z,8.37
2023-11-30T12:29:12.621Z,8.80
2023-11-30T12:31:39.876Z,8.64
2023-11-30T12:34:07.529Z,9.12
2023-11-30T12:36:35.273Z,9.03
2023-11-30T12:39:02.983Z,8.87
2023-11-30T12:41:30.608Z,8.71
2023-11-30T12:43:57.664Z,8.20
2023-11-30T12:46:27.006Z,8.29
2023-11-30T12:48:54.717Z,8.35
2023-11-30T12:51:22.249Z,8.03
2023-11-30T12:53:49.202Z,7.82
2023-11-30T12:56:16.543Z,8.47
2023-11-30T12:58:44.287Z,9.33
2023-11-30T13:01:11.913Z,10.27
2023-11-30T13:03:42.104Z,10.75
2023-11-30T13:06:10.753Z,10.40
2023-11-30T13:08:38.342Z,9.89
2023-11-30T13:11:05.925Z,9.80
2023-11-30T13:13:41.938Z,9.22
2023-11-30T13:16:12.590Z,8.59
2023-11-30T13:18:41.797Z,8.49
2023-11-30T13:21:09.960Z,9.01
2023-11-30T13:23:37.584Z,8.76
2023-11-30T13:26:05.668Z,8.95
2023-11-30T13:28:37.956Z,9.07
2023-11-30T13:31:10.322Z,8.85
2023-11-30T13:33:38.224Z,8.47
2023-11-30T13:36:08.742Z,9.17
2023-11-30T13:38:37.361Z,8.88
2023-11-30T13:41:05.238Z,8.56
2023-11-30T13:43:32.869Z,8.67
2023-11-30T13:46:00.449Z,8.89
2023-11-30T13:48:28.248Z,9.30
2023-11-30T13:51:00.109Z,9.36
2023-11-30T13:53:31.070Z,9.27
2023-11-30T13:55:59.441Z,8.86
2023-11-30T13:58:27.370Z,9.26
2023-11-30T14:00:55.300Z,8.45
2023-11-30T14:03:24.558Z,8.11
2023-11-30T14:05:52.376Z,8.53
2023-11-30T14:08:20.256Z,8.38
2023-11-30T14:10:48.708Z,8.06
2023-11-30T14:13:19.016Z,7.73
2023-11-30T14:15:46.539Z,7.46
2023-11-30T14:18:14.506Z,7.17
2023-11-30T14:20:41.676Z,7.67
2023-11-30T14:23:10.043Z,8.73
2023-11-30T14:25:37.917Z,9.23
2023-11-30T14:28:11.466Z,9.78
2023-11-30T14:30:40.601Z,9.37
2023-11-30T14:33:10.542Z,9.16
2023-11-30T14:35:40.044Z,8.53
2023-11-30T14:38:10.429Z,8.65
2023-11-30T14:40:38.639Z,8.77
2023-11-30T14:43:06.714Z,9.93
2023-11-30T14:45:33.447Z,9.59
2023-11-30T14:48:00.243Z,8.19
2023-11-30T14:50:27.056Z,8.07
2023-11-30T14:52:53.932Z,7.97
2023-11-30T14:55:20.926Z,10.32
2023-11-30T14:57:47.949Z,11.07
2023-11-30T15:00:18.937Z,11.95
2023-11-30T15:02:46.030Z,11.08
2023-11-30T15:05:12.771Z,11.55
2023-11-30T15:07:39.555Z,10.08
2023-11-30T15:10:06.936Z,8.93
2023-11-30T15:12:33.749Z,8.32
2023-11-30T15:15:00.473Z,8.12
2023-11-30T15:17:28.649Z,7.84
2023-11-30T15:19:55.372Z,7.35
2023-11-30T15:22:22.240Z,7.43
2023-11-30T15:24:48.967Z,6.71
2023-11-30T15:27:15.761Z,6.91
2023-11-30T15:29:42.535Z,6.86
2023-11-30T15:32:09.278Z,6.92
2023-11-30T15:34:37.521Z,7.11
2023-11-30T15:37:04.509Z,6.88
2023-11-30T15:39:31.488Z,7.60
2023-11-30T15:41:58.295Z,7.59
2023-11-30T15:44:25.088Z,7.51
2023-11-30T15:46:51.835Z,8.34
2023-11-30T15:49:18.557Z,8.33
2023-11-30T15:51:46.769Z,8.39
2023-11-30T15:54:13.625Z,7.80
2023-11-30T15:56:40.432Z,8.14
2023-11-30T15:59:07.132Z,8.46
2023-11-30T16:01:34.008Z,8.58
2023-11-30T16:04:00.957Z,9.43
2023-11-30T16:06:27.781Z,10.02
2023-11-30T16:08:55.929Z,10.69
2023-11-30T16:11:22.644Z,11.42
2023-11-30T16:13:49.374Z,10.50
2023-11-30T16:16:16.176Z,11.45
2023-11-30T16:18:42.947Z,11.58
2023-11-30T16:21:14.298Z,9.16
2023-11-30T16:23:41.083Z,8.58
2023-11-30T16:26:09.271Z,9.08
2023-11-30T16:28:36.042Z,9.85
2023-11-30T16:31:02.801Z,9.02
2023-11-30T16:33:29.765Z,9.00
2023-11-30T16:35:56.620Z,8.46
2023-11-30T16:38:23.353Z,7.14
2023-11-30T16:40:50.037Z,7.07
2023-11-30T16:43:18.170Z,7.28
2023-11-30T16:45:44.890Z,8.00
2023-11-30T16:48:11.773Z,8.03
2023-11-30T16:50:38.465Z,8.00
2023-11-30T16:53:05.200Z,7.55
2023-11-30T16:55:31.851Z,8.07
2023-11-30T16:57:58.612Z,9.58
2023-11-30T17:00:26.735Z,9.16
2023-11-30T17:02:53.508Z,8.78
2023-11-30T17:05:20.391Z,8.79
2023-11-30T17:07:47.239Z,9.00
2023-11-30T17:10:14.108Z,9.65
2023-11-30T17:12:40.869Z,8.52
2023-11-30T17:15:08.542Z,8.27
2023-11-30T17:17:36.660Z,7.70
2023-11-30T17:20:03.651Z,7.17
2023-11-30T17:22:30.447Z,7.16
2023-11-30T17:24:57.168Z,6.69
2023-11-30T17:27:23.977Z,8.53
2023-11-30T17:29:50.734Z,9.25
2023-11-30T17:32:17.454Z,6.66
2023-11-30T17:34:45.674Z,6.10
2023-11-30T17:37:12.503Z,6.45
2023-11-30T17:39:41.787Z,7.03
2023-11-30T17:42:08.541Z,6.72
2023-11-30T17:44:35.269Z,6.44
2023-11-30T17:47:01.991Z,6.07
2023-11-30T17:49:28.657Z,6.56
2023-11-30T17:51:56.709Z,6.60
2023-11-30T17:54:23.473Z,6.34
2023-11-30T17:56:50.199Z,5.75
2023-11-30T17:59:16.913Z,4.61
2023-11-30T18:01:43.734Z,4.17
2023-11-30T18:04:10.444Z,3.82
2023-11-30T18:06:37.235Z,3.66
2023-11-30T18:09:05.300Z,3.84
2023-11-30T18:11:32.030Z,3.79
2023-11-30T18:13:58.820Z,3.93
2023-11-30T18:16:25.555Z,7.06
2023-11-30T18:18:52.259Z,7.83
2023-11-30T18:21:18.993Z,7.97
2023-11-30T18:23:45.744Z,8.09
2023-11-30T18:26:13.760Z,8.31
2023-11-30T18:28:40.477Z,15.96
2023-11-30T18:31:16.407Z,23.50
2023-11-30T18:33:47.486Z,17.49
2023-11-30T18:36:14.148Z,12.94
2023-11-30T18:38:49.920Z,9.68
2023-11-30T18:41:19.670Z,7.06
2023-11-30T18:43:46.429Z,6.44
2023-11-30T18:46:13.276Z,6.73
2023-11-30T18:48:40.014Z,6.26
2023-11-30T18:51:07.439Z,6.79
2023-11-30T18:53:34.148Z,8.26
2023-11-30T18:56:00.891Z,8.15
2023-11-30T18:58:28.910Z,6.85
2023-11-30T19:00:55.758Z,5.12
2023-11-30T19:03:22.617Z,3.93
2023-11-30T19:05:49.379Z,3.24
2023-11-30T19:08:16.085Z,3.19
2023-11-30T19:10:42.811Z,3.25
2023-11-30T19:13:09.550Z,3.23
2023-11-30T19:15:37.723Z,3.19
2023-11-30T19:18:04.953Z,3.43
2023-11-30T19:20:31.747Z,3.45
2023-11-30T19:22:58.567Z,3.39
2023-11-30T19:25:25.255Z,3.69
2023-11-30T19:27:51.966Z,4.29
2023-11-30T19:30:18.802Z,5.60
2023-11-30T19:32:46.843Z,6.84
2023-11-30T19:35:13.570Z,6.54
2023-11-30T19:37:40.337Z,6.41
2023-11-30T19:40:08.591Z,6.32
2023-11-30T19:42:35.819Z,6.66
2023-11-30T19:45:02.708Z,6.97
2023-11-30T19:47:29.482Z,7.27
2023-11-30T19:49:57.622Z,8.36
2023-11-30T19:52:24.348Z,7.79
2023-11-30T19:54:53.902Z,5.80
2023-11-30T19:57:23.544Z,6.28
2023-11-30T19:59:50.298Z,6.45
2023-11-30T20:02:17.048Z,5.35
2023-11-30T20:04:43.807Z,4.64
2023-11-30T20:07:11.825Z,4.60
2023-11-30T20:09:39.266Z,4.54
2023-11-30T20:12:06.873Z,4.38
2023-11-30T20:14:33.623Z,4.57
2023-11-30T20:17:00.323Z,5.03
2023-11-30T20:19:27.209Z,5.29
2023-11-30T20:21:53.987Z,4.64
2023-11-30T20:24:22.118Z,3.79
2023-11-30T20:26:49.824Z,3.84
2023-11-30T20:29:16.662Z,4.05
2023-11-30T20:31:43.416Z,3.94
2023-11-30T20:34:10.233Z,4.16
2023-11-30T20:36:36.993Z,3.56
2023-11-30T20:39:04.021Z,3.87
2023-11-30T20:41:32.048Z,4.27
2023-11-30T20:43:58.853Z,4.66
2023-11-30T20:46:25.671Z,4.08
2023-11-30T20:48:52.748Z,4.18
2023-11-30T20:51:19.590Z,4.43
2023-11-30T20:53:46.505Z,4.19
2023-11-30T20:56:13.186Z,4.02
2023-11-30T20:58:41.426Z,3.81
2023-11-30T21:01:08.821Z,3.74
2023-11-30T21:03:36.296Z,4.11
2023-11-30T21:06:03.507Z,4.53
2023-11-30T21:08:30.332Z,4.30
2023-11-30T21:10:56.999Z,4.44
2023-11-30T21:13:23.745Z,4.43
2023-11-30T21:15:51.887Z,4.81
2023-11-30T21:18:18.783Z,6.04
2023-11-30T21:20:45.640Z,6.57
2023-11-30T21:23:12.777Z,6.56
2023-11-30T21:25:42.320Z,5.87
2023-11-30T21:28:09.142Z,5.48
2023-11-30T21:30:36.311Z,3.00
2023-11-30T21:33:04.683Z,2.92
2023-11-30T21:35:31.593Z,2.74
2023-11-30T21:37:58.401Z,2.75
2023-11-30T21:40:25.115Z,2.61
2023-11-30T21:42:51.884Z,2.73
2023-11-30T21:45:18.566Z,3.42
2023-11-30T21:47:45.379Z,3.13
2023-11-30T21:50:16.785Z,3.40
2023-11-30T21:52:43.571Z,3.54
2023-11-30T21:55:10.313Z,3.47
2023-11-30T21:57:37.095Z,3.61
2023-11-30T22:00:04.669Z,3.34
2023-11-30T22:02:36.282Z,3.79
2023-11-30T22:05:03.263Z,4.13
2023-11-30T22:07:31.318Z,5.81
2023-11-30T22:09:58.101Z,9.99
2023-11-30T22:12:24.973Z,11.22
2023-11-30T22:14:51.719Z,11.25
2023-11-30T22:17:18.469Z,12.22
2023-11-30T22:19:45.547Z,12.77
2023-11-30T22:22:12.214Z,12.83
2023-11-30T22:24:40.315Z,13.46
2023-11-30T22:27:07.142Z,13.63
2023-11-30T22:29:33.865Z,13.27
2023-11-30T22:32:00.553Z,13.93
2023-11-30T22:34:27.372Z,14.04
2023-11-30T22:36:54.193Z,15.07
2023-11-30T22:39:20.923Z,14.33
2023-11-30T22:41:48.984Z,13.94
2023-11-30T22:44:15.993Z,13.09
2023-11-30T22:46:42.680Z,13.27
2023-11-30T22:49:09.493Z,12.84
2023-11-30T22:51:40.222Z,13.32
2023-11-30T22:54:07.015Z,13.45
2023-11-30T22:56:33.717Z,13.54
2023-11-30T22:59:01.785Z,13.05
2023-11-30T23:01:28.786Z,13.21
2023-11-30T23:03:55.784Z,14.00
2023-11-30T23:06:22.776Z,13.40
2023-11-30T23:08:49.500Z,13.55
2023-11-30T23:11:16.204Z,13.81
2023-11-30T23:13:42.912Z,13.51
2023-11-30T23:16:11.555Z,13.35
2023-11-30T23:18:38.337Z,13.32
2023-11-30T23:21:05.998Z,12.76
2023-11-30T23:23:32.718Z,12.71
2023-11-30T23:25:59.413Z,12.85
2023-11-30T23:28:26.180Z,13.43
2023-11-30T23:30:52.978Z,13.06
2023-11-30T23:33:21.050Z,13.70
2023-11-30T23:35:47.823Z,14.01
2023-11-30T23:38:14.525Z,14.10
2023-11-30T23:40:41.318Z,14.30
2023-11-30T23:43:08.140Z,13.96
2023-11-30T23:45:34.945Z,14.29
2023-11-30T23:48:01.709Z,13.49
2023-11-30T23:50:29.724Z,13.54
2023-11-30T23:52:56.455Z,13.63
2023-11-30T23:55:23.140Z,13.70
2023-11-30T23:57:49.857Z,13.02
